createdAt,value
2022-08-05T00:00:23.202Z,16.45
2022-08-05T00:03:09.125Z,16.27
2022-08-05T00:06:05.067Z,15.63
2022-08-05T00:08:36.374Z,15.75
2022-08-05T00:11:20.564Z,17.58
2022-08-05T00:13:59.608Z,14.82
2022-08-05T00:16:36.509Z,18.30
2022-08-05T00:19:21.469Z,18.42
2022-08-05T00:21:54.039Z,14.95
2022-08-05T00:24:30.773Z,16.38
2022-08-05T00:27:04.758Z,13.90
2022-08-05T00:29:42.167Z,13.55
2022-08-05T00:32:15.451Z,17.83
2022-08-05T00:35:03.361Z,15.65
2022-08-05T00:37:52.921Z,14.40
2022-08-05T00:40:28.465Z,14.38
2022-08-05T00:43:02.236Z,14.25
2022-08-05T00:45:38.735Z,15.18
2022-08-05T00:48:14.426Z,20.67
2022-08-05T00:54:01.349Z,15.20
2022-08-05T00:56:09.459Z,15.68
2022-08-05T01:01:24.942Z,15.32
2022-08-05T01:04:13.792Z,18.63
2022-08-05T01:06:48.723Z,16.42
2022-08-05T01:09:20.032Z,15.40
2022-08-05T01:11:55.147Z,15.52
2022-08-05T01:14:33.317Z,14.98
2022-08-05T01:17:07.535Z,17.20
2022-08-05T01:20:01.638Z,17.45
2022-08-05T01:22:46.878Z,16.63
2022-08-05T01:25:53.696Z,16.20
2022-08-05T01:28:37.306Z,16.92
2022-08-05T01:31:13.946Z,21.45
2022-08-05T01:33:53.538Z,18.13
2022-08-05T01:36:28.318Z,15.25
2022-08-05T01:39:01.362Z,15.65
2022-08-05T01:41:37.613Z,13.95
2022-08-05T01:44:10.175Z,16.40
2022-08-05T01:46:46.521Z,15.48
2022-08-05T01:49:23.330Z,15.23
2022-08-05T01:52:12.345Z,15.95
2022-08-05T01:54:52.783Z,15.30
2022-08-05T01:58:12.773Z,17.70
2022-08-05T02:00:29.922Z,18.73
2022-08-05T02:03:05.935Z,16.17
2022-08-05T02:05:38.497Z,18.35
2022-08-05T02:08:13.215Z,16.13
2022-08-05T02:11:06.976Z,15.85
2022-08-05T02:13:53.369Z,16.73
2022-08-05T02:16:34.581Z,16.35
2022-08-05T02:19:11.729Z,16.52
2022-08-05T02:21:49.256Z,16.10
2022-08-05T02:24:23.228Z,15.18
2022-08-05T02:26:58.399Z,15.65
2022-08-05T02:29:58.413Z,15.65
2022-08-05T02:32:30.895Z,15.27
2022-08-05T02:35:13.890Z,15.45
2022-08-05T02:37:47.814Z,15.25
2022-08-05T02:40:26.082Z,19.75
2022-08-05T02:42:58.591Z,16.17
2022-08-05T02:48:29.536Z,17.92
2022-08-05T02:51:01.920Z,14.48
2022-08-05T02:53:38.974Z,15.55
2022-08-05T02:56:15.760Z,15.25
2022-08-05T02:58:51.126Z,15.52
2022-08-05T03:01:25.334Z,15.85
2022-08-05T03:04:03.194Z,16.20
2022-08-05T03:06:54.482Z,15.70
2022-08-05T03:09:36.373Z,15.40
2022-08-05T03:12:10.430Z,22.50
2022-08-05T03:17:16.777Z,14.88
2022-08-05T03:19:48.515Z,15.20
2022-08-05T03:22:32.547Z,15.27
2022-08-05T03:25:31.600Z,16.45
2022-08-05T03:27:59.744Z,16.65
2022-08-05T03:30:33.530Z,17.92
2022-08-05T03:33:06.038Z,16.80
2022-08-05T03:35:40.761Z,17.20
2022-08-05T03:38:14.622Z,18.02
2022-08-05T03:40:48.407Z,17.77
2022-08-05T03:44:08.996Z,16.27
2022-08-05T03:46:10.928Z,17.27
2022-08-05T03:48:45.392Z,15.88
2022-08-05T03:52:39.069Z,17.35
2022-08-05T03:55:50.834Z,16.70
2022-08-05T03:57:16.025Z,17.42
2022-08-05T04:00:07.078Z,18.00
2022-08-05T04:02:57.890Z,18.88
2022-08-05T04:05:34.668Z,22.17
2022-08-05T04:08:29.700Z,24.40
2022-08-05T04:11:00.749Z,16.77
2022-08-05T04:13:51.273Z,16.90
2022-08-05T04:16:24.374Z,18.40
2022-08-05T04:18:57.753Z,17.10
2022-08-05T04:22:09.508Z,17.38
2022-08-05T04:24:22.494Z,16.70
2022-08-05T04:26:53.246Z,15.00
2022-08-05T04:29:23.359Z,17.05
2022-08-05T04:31:53.401Z,15.88
2022-08-05T04:34:33.957Z,16.60
2022-08-05T04:37:06.119Z,15.68
2022-08-05T04:39:39.229Z,14.77
2022-08-05T04:42:10.809Z,17.45
2022-08-05T04:44:42.049Z,18.98
2022-08-05T04:47:15.743Z,13.90
2022-08-05T04:50:01.737Z,12.13
2022-08-05T04:52:36.878Z,12.15
2022-08-05T04:55:14.254Z,12.65
2022-08-05T04:57:54.049Z,12.50
2022-08-05T05:00:25.069Z,13.07
2022-08-05T05:02:56.571Z,13.57
2022-08-05T05:05:29.376Z,14.10
2022-08-05T05:08:02.963Z,11.65
2022-08-05T05:10:39.369Z,14.68
2022-08-05T05:13:11.196Z,11.65
2022-08-05T05:15:57.320Z,12.27
2022-08-05T05:18:33.779Z,11.30
2022-08-05T05:21:05.671Z,10.68
2022-08-05T05:26:28.582Z,15.35
2022-08-05T05:29:14.478Z,9.77
2022-08-05T05:31:46.498Z,9.95
2022-08-05T05:34:21.164Z,16.88
2022-08-05T05:36:54.888Z,10.35
2022-08-05T05:39:25.136Z,11.47
2022-08-05T05:42:07.068Z,10.38
2022-08-05T05:44:37.691Z,9.82
2022-08-05T05:47:21.954Z,9.20
2022-08-05T05:49:56.906Z,12.32
2022-08-05T05:52:37.952Z,13.57
2022-08-05T05:55:13.724Z,18.33
2022-08-05T05:57:52.238Z,15.35
2022-08-05T06:00:31.516Z,11.13
2022-08-05T06:03:40.170Z,8.80
2022-08-05T06:05:55.624Z,8.43
2022-08-05T06:08:31.839Z,10.18
2022-08-05T06:11:04.048Z,12.73
2022-08-05T06:13:40.833Z,9.43
2022-08-05T06:16:30.286Z,9.90
2022-08-05T06:19:05.761Z,9.13
2022-08-05T06:21:42.199Z,8.27
2022-08-05T06:24:14.773Z,9.00
2022-08-05T06:26:51.825Z,9.07
2022-08-05T06:29:51.926Z,7.60
2022-08-05T06:32:25.056Z,13.48
2022-08-05T06:35:00.173Z,11.32
2022-08-05T06:37:57.361Z,11.55
2022-08-05T06:40:32.284Z,8.85
2022-08-05T06:43:03.238Z,8.80
2022-08-05T06:46:03.134Z,20.73
2022-08-05T06:48:52.504Z,8.98
2022-08-05T06:54:01.715Z,7.03
2022-08-05T06:56:34.856Z,12.15
2022-08-05T06:59:08.543Z,9.40
2022-08-05T07:01:42.881Z,8.68
2022-08-05T07:04:16.579Z,8.73
2022-08-05T07:06:50.464Z,14.10
2022-08-05T07:09:20.949Z,8.25
2022-08-05T07:11:56.196Z,9.02
2022-08-05T07:14:48.358Z,8.88
2022-08-05T07:18:01.974Z,6.93
2022-08-05T07:23:03.025Z,10.40
2022-08-05T07:25:54.641Z,5.97
2022-08-05T07:28:26.666Z,7.07
2022-08-05T07:30:57.528Z,9.93
2022-08-05T07:33:36.762Z,8.43
2022-08-05T07:36:20.180Z,6.68
2022-08-05T07:38:54.623Z,9.30
2022-08-05T07:42:08.677Z,8.52
2022-08-05T07:44:19.692Z,10.02
2022-08-05T07:46:51.904Z,7.95
2022-08-05T07:49:24.157Z,6.10
2022-08-05T07:51:55.172Z,7.80
2022-08-05T07:54:31.465Z,5.70
2022-08-05T07:57:41.711Z,5.80
2022-08-05T07:59:55.650Z,7.95
2022-08-05T08:02:31.298Z,6.45
2022-08-05T08:05:22.438Z,6.35
2022-08-05T08:08:00.038Z,8.57
2022-08-05T08:10:32.179Z,7.00
2022-08-05T08:13:03.427Z,9.25
2022-08-05T08:16:35.915Z,8.10
2022-08-05T08:18:24.739Z,9.20
2022-08-05T08:21:02.295Z,6.88
2022-08-05T08:24:01.007Z,8.52
2022-08-05T08:26:29.813Z,7.35
2022-08-05T08:29:09.749Z,10.05
2022-08-05T08:31:53.760Z,5.60
2022-08-05T08:34:30.211Z,8.63
2022-08-05T08:37:05.481Z,7.55
2022-08-05T08:39:37.688Z,7.93
2022-08-05T08:42:34.127Z,7.13
2022-08-05T08:45:23.925Z,10.23
2022-08-05T08:48:10.469Z,5.60
2022-08-05T08:51:07.725Z,6.13
2022-08-05T08:53:51.567Z,10.48
2022-08-05T08:56:27.141Z,8.45
2022-08-05T08:59:00.027Z,6.18
2022-08-05T09:01:31.314Z,7.35
2022-08-05T09:04:02.448Z,6.57
2022-08-05T09:09:09.449Z,4.93
2022-08-05T09:11:53.027Z,7.00
2022-08-05T09:14:56.575Z,11.43
2022-08-05T09:17:42.386Z,5.30
2022-08-05T09:20:09.589Z,9.18
2022-08-05T09:23:18.952Z,20.20
2022-08-05T09:26:03.068Z,5.40
2022-08-05T09:28:36.476Z,6.18
2022-08-05T09:32:38.786Z,5.63
2022-08-05T09:34:01.939Z,6.30
2022-08-05T09:36:54.036Z,7.10
2022-08-05T09:39:42.017Z,6.53
2022-08-05T09:42:24.291Z,5.72
2022-08-05T09:46:04.982Z,8.77
2022-08-05T09:47:59.127Z,10.07
2022-08-05T09:50:43.966Z,6.75
2022-08-05T09:53:23.140Z,5.35
2022-08-05T09:56:12.972Z,8.55
2022-08-05T09:58:57.500Z,6.10
2022-08-05T10:01:32.413Z,6.07
2022-08-05T10:04:10.629Z,9.73
2022-08-05T10:06:55.044Z,8.48
2022-08-05T10:09:30.271Z,8.95
2022-08-05T10:12:31.080Z,6.25
2022-08-05T10:15:23.444Z,9.20
2022-08-05T10:18:16.877Z,6.35
2022-08-05T10:20:50.209Z,5.40
2022-08-05T10:23:55.109Z,11.32
2022-08-05T10:26:14.975Z,6.20
2022-08-05T10:28:46.852Z,5.38
2022-08-05T10:32:55.078Z,6.55
2022-08-05T10:34:11.707Z,8.52
2022-08-05T10:36:43.819Z,5.45
2022-08-05T10:39:25.244Z,7.95
2022-08-05T10:42:15.107Z,6.55
2022-08-05T10:44:49.687Z,6.60
2022-08-05T10:47:26.107Z,5.03
2022-08-05T10:50:31.691Z,7.07
2022-08-05T10:56:03.161Z,5.78
2022-08-05T10:58:35.842Z,11.55
2022-08-05T11:01:15.824Z,5.80
2022-08-05T11:04:06.879Z,12.10
2022-08-05T11:07:09.709Z,6.65
2022-08-05T11:09:46.632Z,5.78
2022-08-05T11:12:50.792Z,5.18
2022-08-05T11:15:59.220Z,6.28
2022-08-05T11:18:32.609Z,6.57
2022-08-05T11:21:28.403Z,5.15
2022-08-05T11:24:30.081Z,5.82
2022-08-05T11:27:37.000Z,4.90
2022-08-05T11:30:22.394Z,7.57
2022-08-05T11:33:34.520Z,6.72
2022-08-05T11:36:34.568Z,7.85
2022-08-05T11:39:12.432Z,5.35
2022-08-05T11:42:01.284Z,8.02
2022-08-05T11:44:54.140Z,6.50
2022-08-05T11:47:49.413Z,4.80
2022-08-05T11:50:17.686Z,7.72
2022-08-05T11:52:52.091Z,4.97
2022-08-05T11:55:32.000Z,4.55
2022-08-05T11:58:09.499Z,13.30
2022-08-05T12:00:44.129Z,8.32
2022-08-05T12:03:28.781Z,6.15
2022-08-05T12:06:10.204Z,5.43
2022-08-05T12:08:51.397Z,11.95
2022-08-05T12:11:24.216Z,4.97
2022-08-05T12:14:04.241Z,9.63
2022-08-05T12:16:38.232Z,7.13
2022-08-05T12:20:16.979Z,7.63
2022-08-05T12:22:03.089Z,6.63
2022-08-05T12:24:35.326Z,4.35
2022-08-05T12:27:09.858Z,8.95
2022-08-05T12:30:03.347Z,6.22
2022-08-05T12:32:38.708Z,4.70
2022-08-05T12:35:16.853Z,6.22
2022-08-05T12:37:53.197Z,7.38
2022-08-05T12:40:29.902Z,10.75
2022-08-05T12:43:02.650Z,7.05
2022-08-05T12:45:42.724Z,7.47
2022-08-05T12:48:27.799Z,6.38
2022-08-05T12:52:12.897Z,6.45
2022-08-05T12:54:23.267Z,5.00
2022-08-05T12:56:58.017Z,16.80
2022-08-05T13:00:08.502Z,5.32
2022-08-05T13:02:27.263Z,14.70
2022-08-05T13:04:59.150Z,11.98
2022-08-05T13:10:22.189Z,5.32
2022-08-05T13:12:58.775Z,8.60
2022-08-05T13:15:42.131Z,4.25
2022-08-05T13:18:21.581Z,8.60
2022-08-05T13:20:57.420Z,6.15
2022-08-05T13:23:27.691Z,14.68
2022-08-05T13:26:01.454Z,10.80
2022-08-05T13:28:33.936Z,9.18
2022-08-05T13:31:17.440Z,6.75
2022-08-05T13:34:24.589Z,4.72
2022-08-05T13:37:01.208Z,8.60
2022-08-05T13:40:16.595Z,6.32
2022-08-05T13:42:23.607Z,5.45
2022-08-05T13:44:59.014Z,7.10
2022-08-05T13:47:35.598Z,9.02
2022-08-05T13:50:11.226Z,6.25
2022-08-05T13:52:42.981Z,6.40
2022-08-05T13:55:14.468Z,7.40
2022-08-05T13:58:05.180Z,7.53
2022-08-05T14:03:08.101Z,7.50
2022-08-05T14:08:32.612Z,6.35
2022-08-05T14:11:20.591Z,6.45
2022-08-05T14:13:55.112Z,5.80
2022-08-05T14:16:29.620Z,18.95
2022-08-05T14:19:04.471Z,5.43
2022-08-05T14:22:09.941Z,6.13
2022-08-05T14:24:25.997Z,6.43
2022-08-05T14:27:17.701Z,4.32
2022-08-05T14:29:51.250Z,4.60
2022-08-05T14:32:27.690Z,6.55
2022-08-05T14:34:59.523Z,7.70
2022-08-05T14:37:45.514Z,12.73
2022-08-05T14:40:18.941Z,7.18
2022-08-05T14:42:49.130Z,15.32
2022-08-05T14:45:20.540Z,6.03
2022-08-05T14:48:04.176Z,7.30
2022-08-05T14:50:39.748Z,8.20
2022-08-05T14:53:14.870Z,5.63
2022-08-05T14:55:52.096Z,5.53
2022-08-05T14:58:22.763Z,7.13
2022-08-05T15:00:58.027Z,8.07
2022-08-05T15:03:34.056Z,9.02
2022-08-05T15:09:01.173Z,6.28
2022-08-05T15:11:51.292Z,6.63
2022-08-05T15:14:34.996Z,12.63
2022-08-05T15:17:44.329Z,7.85
2022-08-05T15:20:05.532Z,6.43
2022-08-05T15:22:36.430Z,12.40
2022-08-05T15:25:13.644Z,6.10
2022-08-05T15:27:51.884Z,8.15
2022-08-05T15:30:23.099Z,14.10
2022-08-05T15:32:55.898Z,8.63
2022-08-05T15:35:29.088Z,6.18
2022-08-05T15:38:34.455Z,7.97
2022-08-05T15:41:20.505Z,5.43
2022-08-05T15:43:48.585Z,6.32
2022-08-05T15:48:54.749Z,8.98
2022-08-05T15:52:12.557Z,5.50
2022-08-05T15:54:34.685Z,6.05
2022-08-05T15:57:08.281Z,8.05
2022-08-05T15:59:40.799Z,10.82
2022-08-05T16:02:27.622Z,9.40
2022-08-05T16:04:59.400Z,9.82
2022-08-05T16:07:31.529Z,9.50
2022-08-05T16:10:02.389Z,10.35
2022-08-05T16:12:33.040Z,9.48
2022-08-05T16:15:04.421Z,7.43
2022-08-05T16:17:35.417Z,6.43
2022-08-05T16:20:11.925Z,10.05
2022-08-05T16:22:45.171Z,7.75
2022-08-05T16:25:15.964Z,10.77
2022-08-05T16:28:00.831Z,6.30
2022-08-05T16:30:36.978Z,5.15
2022-08-05T16:33:07.461Z,7.63
2022-08-05T16:35:42.178Z,7.25
2022-08-05T16:38:25.265Z,17.02
2022-08-05T16:41:21.624Z,8.82
2022-08-05T16:43:56.172Z,6.60
2022-08-05T16:46:27.507Z,7.82
2022-08-05T16:48:57.706Z,6.07
2022-08-05T16:51:30.685Z,10.68
2022-08-05T16:54:16.044Z,7.00
2022-08-05T16:56:52.083Z,7.63
2022-08-05T16:59:22.601Z,8.73
2022-08-05T17:04:28.464Z,11.75
2022-08-05T17:07:01.521Z,7.90
2022-08-05T17:09:57.143Z,11.40
2022-08-05T17:12:51.834Z,8.68
2022-08-05T17:15:19.684Z,11.82
2022-08-05T17:17:54.867Z,9.50
2022-08-05T17:20:26.702Z,7.45
2022-08-05T17:22:58.952Z,8.13
2022-08-05T17:25:39.508Z,10.70
2022-08-05T17:28:11.377Z,6.60
2022-08-05T17:30:51.899Z,8.70
2022-08-05T17:33:23.469Z,11.35
2022-08-05T17:36:09.111Z,12.05
2022-08-05T17:38:40.717Z,11.90
2022-08-05T17:44:03.227Z,17.30
2022-08-05T17:46:33.619Z,17.10
2022-08-05T17:49:04.750Z,11.85
2022-08-05T17:51:40.296Z,13.52
2022-08-05T17:54:11.557Z,16.98
2022-08-05T17:56:49.009Z,18.23
2022-08-05T17:59:22.720Z,16.23
2022-08-05T18:01:56.195Z,17.13
2022-08-05T18:04:31.483Z,9.30
2022-08-05T18:07:06.351Z,11.55
2022-08-05T18:10:00.465Z,12.48
2022-08-05T18:12:39.113Z,12.73
2022-08-05T18:15:11.286Z,10.40
2022-08-05T18:17:59.644Z,18.70
2022-08-05T18:20:33.327Z,9.82
2022-08-05T18:23:09.546Z,13.07
2022-08-05T18:25:45.608Z,11.00
2022-08-05T18:28:22.748Z,10.07
2022-08-05T18:31:07.475Z,11.38
2022-08-05T18:33:47.198Z,11.43
2022-08-05T18:36:30.232Z,8.57
2022-08-05T18:39:09.792Z,9.55
2022-08-05T18:43:27.910Z,8.80
2022-08-05T18:46:55.667Z,11.48
2022-08-05T18:49:57.846Z,10.95
2022-08-05T18:52:37.837Z,8.85
2022-08-05T18:55:23.025Z,10.98
2022-08-05T18:58:03.208Z,9.90
2022-08-05T19:00:38.967Z,8.90
2022-08-05T19:03:19.030Z,14.73
2022-08-05T19:06:21.528Z,11.40
2022-08-05T19:08:59.538Z,11.05
2022-08-05T19:12:00.015Z,11.73
2022-08-05T19:15:00.499Z,10.27
2022-08-05T19:18:09.090Z,17.08
2022-08-05T19:20:49.538Z,11.60
2022-08-05T19:24:05.571Z,11.68
2022-08-05T19:26:36.771Z,10.32
2022-08-05T19:29:35.825Z,9.43
2022-08-05T19:32:13.217Z,11.45
2022-08-05T19:34:55.021Z,12.07
2022-08-05T19:38:04.718Z,12.65
2022-08-05T19:40:35.175Z,11.85
2022-08-05T19:43:11.684Z,10.50
2022-08-05T19:46:16.886Z,12.75
2022-08-05T19:49:03.166Z,9.60
2022-08-05T19:52:05.821Z,8.77
2022-08-05T19:57:10.110Z,9.18
2022-08-05T19:59:59.310Z,9.20
2022-08-05T20:02:49.869Z,10.85
2022-08-05T20:05:43.317Z,9.88
2022-08-05T20:08:29.398Z,10.32
2022-08-05T20:11:05.641Z,8.82
2022-08-05T20:13:55.060Z,9.68
2022-08-05T20:16:33.837Z,9.43
2022-08-05T20:19:07.146Z,10.25
2022-08-05T20:21:41.733Z,11.82
2022-08-05T20:24:17.875Z,10.95
2022-08-05T20:30:48.686Z,9.13
2022-08-05T20:33:46.523Z,9.75
2022-08-05T21:08:44.796Z,9.85
2022-08-05T21:26:53.171Z,9.82
2022-08-05T21:29:48.239Z,12.75
2022-08-05T21:33:40.066Z,11.13
2022-08-05T23:08:36.498Z,11.70
2022-08-05T23:15:45.881Z,9.70
2022-08-05T23:19:03.375Z,12.88
2022-08-05T23:21:48.433Z,11.07
2022-08-05T23:24:23.445Z,9.80
2022-08-05T23:27:09.386Z,10.23
2022-08-05T23:29:52.188Z,11.40
2022-08-05T23:32:35.433Z,9.93
2022-08-05T23:35:43.875Z,11.73
2022-08-05T23:38:30.845Z,11.38
2022-08-05T23:44:22.663Z,10.38
2022-08-05T23:47:15.214Z,9.50
2022-08-05T23:50:02.987Z,10.57
2022-08-05T23:53:22.949Z,9.77
2022-08-05T23:56:13.226Z,9.80
2022-08-05T23:58:55.201Z,8.43
